sensor_id;sensor_type;location;lat;lon;timestamp;temperature;humidity
9564;DHT22;4820;50.870;4.702;2022-10-31T00:01:16;14.90;99.90
9564;DHT22;4820;50.870;4.702;2022-10-31T00:03:43;14.90;99.90
9564;DHT22;4820;50.870;4.702;2022-10-31T00:06:09;14.90;99.90
9564;DHT22;4820;50.870;4.702;2022-10-31T00:08:34;14.80;99.90
9564;DHT22;4820;50.870;4.702;2022-10-31T00:11:00;14.80;99.90
9564;DHT22;4820;50.870;4.702;2022-10-31T00:13:26;14.70;99.90
9564;DHT22;4820;50.870;4.702;2022-10-31T00:15:51;14.70;99.90
9564;DHT22;4820;50.870;4.702;2022-10-31T00:18:17;14.70;99.90
9564;DHT22;4820;50.870;4.702;2022-10-31T00:20:43;14.80;99.90
9564;DHT22;4820;50.870;4.702;2022-10-31T00:23:09;14.80;99.90
9564;DHT22;4820;50.870;4.702;2022-10-31T00:25:38;14.70;99.90
9564;DHT22;4820;50.870;4.702;2022-10-31T00:28:05;14.70;99.90
9564;DHT22;4820;50.870;4.702;2022-10-31T00:30:32;14.60;99.90
9564;DHT22;4820;50.870;4.702;2022-10-31T00:32:58;14.60;99.90
9564;DHT22;4820;50.870;4.702;2022-10-31T00:35:23;14.50;99.90
9564;DHT22;4820;50.870;4.702;2022-10-31T00:37:49;14.50;99.90
9564;DHT22;4820;50.870;4.702;2022-10-31T00:40:15;14.50;99.90
9564;DHT22;4820;50.870;4.702;2022-10-31T00:42:41;14.50;99.90
9564;DHT22;4820;50.870;4.702;2022-10-31T00:45:09;14.50;99.90
9564;DHT22;4820;50.870;4.702;2022-10-31T00:47:35;14.50;99.90
9564;DHT22;4820;50.870;4.702;2022-10-31T00:50:03;14.50;99.90
9564;DHT22;4820;50.870;4.702;2022-10-31T00:52:28;14.40;99.90
9564;DHT22;4820;50.870;4.702;2022-10-31T00:54:54;14.40;99.90
9564;DHT22;4820;50.870;4.702;2022-10-31T00:57:19;14.40;99.90
9564;DHT22;4820;50.870;4.702;2022-10-31T00:59:45;14.40;99.90
9564;DHT22;4820;50.870;4.702;2022-10-31T01:02:11;14.30;99.90
9564;DHT22;4820;50.870;4.702;2022-10-31T01:04:36;14.30;99.90
9564;DHT22;4820;50.870;4.702;2022-10-31T01:07:02;14.30;99.90
9564;DHT22;4820;50.870;4.702;2022-10-31T01:09:27;14.20;99.90
9564;DHT22;4820;50.870;4.702;2022-10-31T01:11:53;14.20;99.90
9564;DHT22;4820;50.870;4.702;2022-10-31T01:14:18;14.20;99.90
9564;DHT22;4820;50.870;4.702;2022-10-31T01:16:44;14.20;99.90
9564;DHT22;4820;50.870;4.702;2022-10-31T01:19:10;14.20;99.90
9564;DHT22;4820;50.870;4.702;2022-10-31T01:21:35;14.20;99.90
9564;DHT22;4820;50.870;4.702;2022-10-31T01:24:01;14.20;99.90
9564;DHT22;4820;50.870;4.702;2022-10-31T01:26:31;14.20;99.90
9564;DHT22;4820;50.870;4.702;2022-10-31T01:28:59;14.20;99.90
9564;DHT22;4820;50.870;4.702;2022-10-31T01:31:28;14.30;99.90
9564;DHT22;4820;50.870;4.702;2022-10-31T01:33:55;14.20;99.90
9564;DHT22;4820;50.870;4.702;2022-10-31T01:36:24;14.20;99.90
9564;DHT22;4820;50.870;4.702;2022-10-31T01:38:51;14.20;99.90
9564;DHT22;4820;50.870;4.702;2022-10-31T01:41:21;14.20;99.90
9564;DHT22;4820;50.870;4.702;2022-10-31T01:46:24;14.10;99.90
9564;DHT22;4820;50.870;4.702;2022-10-31T01:48:53;14.10;99.90
9564;DHT22;4820;50.870;4.702;2022-10-31T01:51:21;14.00;99.90
9564;DHT22;4820;50.870;4.702;2022-10-31T01:53:48;14.00;99.90
9564;DHT22;4820;50.870;4.702;2022-10-31T01:56:16;14.00;99.90
9564;DHT22;4820;50.870;4.702;2022-10-31T01:58:45;14.00;99.90
9564;DHT22;4820;50.870;4.702;2022-10-31T02:01:12;14.00;99.90
9564;DHT22;4820;50.870;4.702;2022-10-31T02:03:40;14.00;99.90
9564;DHT22;4820;50.870;4.702;2022-10-31T02:06:11;14.00;99.90
9564;DHT22;4820;50.870;4.702;2022-10-31T02:08:39;14.00;99.90
9564;DHT22;4820;50.870;4.702;2022-10-31T02:11:06;13.90;99.90
9564;DHT22;4820;50.870;4.702;2022-10-31T02:13:34;13.90;99.90
9564;DHT22;4820;50.870;4.702;2022-10-31T02:15:59;13.90;99.90
9564;DHT22;4820;50.870;4.702;2022-10-31T02:18:28;13.80;99.90
9564;DHT22;4820;50.870;4.702;2022-10-31T02:42:33;13.70;99.90
9564;DHT22;4820;50.870;4.702;2022-10-31T02:45:08;13.70;99.90
9564;DHT22;4820;50.870;4.702;2022-10-31T02:47:38;13.60;99.90
9564;DHT22;4820;50.870;4.702;2022-10-31T02:50:18;13.60;99.90
9564;DHT22;4820;50.870;4.702;2022-10-31T02:52:50;13.60;99.90
9564;DHT22;4820;50.870;4.702;2022-10-31T02:57:58;13.60;99.90
9564;DHT22;4820;50.870;4.702;2022-10-31T03:00:26;13.60;99.90
9564;DHT22;4820;50.870;4.702;2022-10-31T03:03:12;13.60;99.90
9564;DHT22;4820;50.870;4.702;2022-10-31T03:06:17;13.60;99.90
9564;DHT22;4820;50.870;4.702;2022-10-31T03:09:08;13.60;99.90
9564;DHT22;4820;50.870;4.702;2022-10-31T03:17:05;13.60;99.90
9564;DHT22;4820;50.870;4.702;2022-10-31T03:19:40;13.60;99.90
9564;DHT22;4820;50.870;4.702;2022-10-31T03:24:39;13.50;99.90
9564;DHT22;4820;50.870;4.702;2022-10-31T03:27:07;13.50;99.90
9564;DHT22;4820;50.870;4.702;2022-10-31T03:29:36;13.50;99.90
9564;DHT22;4820;50.870;4.702;2022-10-31T03:32:10;13.50;99.90
9564;DHT22;4820;50.870;4.702;2022-10-31T03:34:39;13.50;99.90
9564;DHT22;4820;50.870;4.702;2022-10-31T03:37:10;13.40;99.90
9564;DHT22;4820;50.870;4.702;2022-10-31T03:39:39;13.40;99.90
9564;DHT22;4820;50.870;4.702;2022-10-31T03:42:10;13.40;99.90
9564;DHT22;4820;50.870;4.702;2022-10-31T03:44:38;13.30;99.90
9564;DHT22;4820;50.870;4.702;2022-10-31T03:47:06;13.30;99.90
9564;DHT22;4820;50.870;4.702;2022-10-31T03:49:32;13.40;99.90
9564;DHT22;4820;50.870;4.702;2022-10-31T03:54:49;13.40;99.90
9564;DHT22;4820;50.870;4.702;2022-10-31T04:00:35;13.30;99.90
9564;DHT22;4820;50.870;4.702;2022-10-31T04:03:26;13.20;99.90
9564;DHT22;4820;50.870;4.702;2022-10-31T04:05:53;13.20;99.90
9564;DHT22;4820;50.870;4.702;2022-10-31T04:08:22;13.20;99.90
9564;DHT22;4820;50.870;4.702;2022-10-31T04:10:50;13.10;99.90
9564;DHT22;4820;50.870;4.702;2022-10-31T04:13:21;13.20;99.90
9564;DHT22;4820;50.870;4.702;2022-10-31T04:15:50;13.20;99.90
9564;DHT22;4820;50.870;4.702;2022-10-31T04:18:17;13.10;99.90
9564;DHT22;4820;50.870;4.702;2022-10-31T04:20:43;13.10;99.90
9564;DHT22;4820;50.870;4.702;2022-10-31T04:23:22;13.10;99.90
9564;DHT22;4820;50.870;4.702;2022-10-31T04:25:48;13.10;99.90
9564;DHT22;4820;50.870;4.702;2022-10-31T04:28:14;13.10;99.90
9564;DHT22;4820;50.870;4.702;2022-10-31T04:30:39;13.10;99.90
9564;DHT22;4820;50.870;4.702;2022-10-31T04:33:05;13.00;99.90
9564;DHT22;4820;50.870;4.702;2022-10-31T04:35:31;13.00;99.90
9564;DHT22;4820;50.870;4.702;2022-10-31T04:37:56;13.00;99.90
9564;DHT22;4820;50.870;4.702;2022-10-31T04:40:22;13.00;99.90
9564;DHT22;4820;50.870;4.702;2022-10-31T04:42:47;13.00;99.90
9564;DHT22;4820;50.870;4.702;2022-10-31T04:45:14;13.10;99.90
9564;DHT22;4820;50.870;4.702;2022-10-31T04:47:40;13.10;99.90
9564;DHT22;4820;50.870;4.702;2022-10-31T04:50:06;13.00;99.90
9564;DHT22;4820;50.870;4.702;2022-10-31T04:52:32;13.10;99.90
9564;DHT22;4820;50.870;4.702;2022-10-31T04:54:58;13.10;99.90
9564;DHT22;4820;50.870;4.702;2022-10-31T04:57:23;13.10;99.90
9564;DHT22;4820;50.870;4.702;2022-10-31T04:59:49;13.10;99.90
9564;DHT22;4820;50.870;4.702;2022-10-31T05:02:15;13.10;99.90
9564;DHT22;4820;50.870;4.702;2022-10-31T05:04:40;13.10;99.90
9564;DHT22;4820;50.870;4.702;2022-10-31T05:07:06;13.10;99.90
9564;DHT22;4820;50.870;4.702;2022-10-31T05:09:31;13.10;99.90
9564;DHT22;4820;50.870;4.702;2022-10-31T05:11:57;13.10;99.90
9564;DHT22;4820;50.870;4.702;2022-10-31T05:14:23;13.10;99.90
9564;DHT22;4820;50.870;4.702;2022-10-31T05:16:48;13.00;99.90
9564;DHT22;4820;50.870;4.702;2022-10-31T05:19:14;13.00;99.90
9564;DHT22;4820;50.870;4.702;2022-10-31T05:21:39;13.00;99.90
9564;DHT22;4820;50.870;4.702;2022-10-31T05:24:05;13.00;99.90
9564;DHT22;4820;50.870;4.702;2022-10-31T05:26:31;13.00;99.90
9564;DHT22;4820;50.870;4.702;2022-10-31T05:28:57;13.00;99.90
9564;DHT22;4820;50.870;4.702;2022-10-31T05:31:22;13.00;99.90
9564;DHT22;4820;50.870;4.702;2022-10-31T05:33:48;12.90;99.90
9564;DHT22;4820;50.870;4.702;2022-10-31T05:36:14;12.80;99.90
9564;DHT22;4820;50.870;4.702;2022-10-31T05:38:39;12.80;99.90
9564;DHT22;4820;50.870;4.702;2022-10-31T05:41:05;12.90;99.90
9564;DHT22;4820;50.870;4.702;2022-10-31T05:43:31;12.90;99.90
9564;DHT22;4820;50.870;4.702;2022-10-31T05:45:57;13.00;99.90
9564;DHT22;4820;50.870;4.702;2022-10-31T05:48:23;13.00;99.90
9564;DHT22;4820;50.870;4.702;2022-10-31T05:50:49;13.10;99.90
9564;DHT22;4820;50.870;4.702;2022-10-31T05:53:15;13.00;99.90
9564;DHT22;4820;50.870;4.702;2022-10-31T05:55:42;13.00;99.90
9564;DHT22;4820;50.870;4.702;2022-10-31T05:58:08;13.10;99.90
9564;DHT22;4820;50.870;4.702;2022-10-31T06:00:34;13.10;99.90
9564;DHT22;4820;50.870;4.702;2022-10-31T06:03:05;13.10;99.90
9564;DHT22;4820;50.870;4.702;2022-10-31T06:05:32;13.10;99.90
9564;DHT22;4820;50.870;4.702;2022-10-31T06:07:58;13.20;99.90
9564;DHT22;4820;50.870;4.702;2022-10-31T06:10:24;13.20;99.90
9564;DHT22;4820;50.870;4.702;2022-10-31T06:12:50;13.20;99.90
9564;DHT22;4820;50.870;4.702;2022-10-31T06:15:16;13.20;99.90
9564;DHT22;4820;50.870;4.702;2022-10-31T06:17:42;13.10;99.90
9564;DHT22;4820;50.870;4.702;2022-10-31T06:20:08;13.10;99.90
9564;DHT22;4820;50.870;4.702;2022-10-31T06:22:34;13.20;99.90
9564;DHT22;4820;50.870;4.702;2022-10-31T06:25:00;13.20;99.90
9564;DHT22;4820;50.870;4.702;2022-10-31T06:27:26;13.20;99.90
9564;DHT22;4820;50.870;4.702;2022-10-31T06:29:52;13.20;99.90
9564;DHT22;4820;50.870;4.702;2022-10-31T06:32:17;13.20;99.90
9564;DHT22;4820;50.870;4.702;2022-10-31T06:34:43;13.20;99.90
9564;DHT22;4820;50.870;4.702;2022-10-31T06:37:12;13.30;99.90
9564;DHT22;4820;50.870;4.702;2022-10-31T06:39:38;13.30;99.90
9564;DHT22;4820;50.870;4.702;2022-10-31T06:42:04;13.30;99.90
9564;DHT22;4820;50.870;4.702;2022-10-31T06:44:30;13.30;99.90
9564;DHT22;4820;50.870;4.702;2022-10-31T06:46:56;13.30;99.90
9564;DHT22;4820;50.870;4.702;2022-10-31T06:49:21;13.30;99.90
9564;DHT22;4820;50.870;4.702;2022-10-31T06:51:48;13.30;99.90
9564;DHT22;4820;50.870;4.702;2022-10-31T06:54:14;13.30;99.90
9564;DHT22;4820;50.870;4.702;2022-10-31T06:56:40;13.30;99.90
9564;DHT22;4820;50.870;4.702;2022-10-31T06:59:06;13.40;99.90
9564;DHT22;4820;50.870;4.702;2022-10-31T07:01:32;13.40;99.90
9564;DHT22;4820;50.870;4.702;2022-10-31T07:03:57;13.40;99.90
9564;DHT22;4820;50.870;4.702;2022-10-31T07:06:23;13.40;99.90
9564;DHT22;4820;50.870;4.702;2022-10-31T07:08:48;13.40;99.90
9564;DHT22;4820;50.870;4.702;2022-10-31T07:11:14;13.40;99.90
9564;DHT22;4820;50.870;4.702;2022-10-31T07:13:40;13.40;99.90
9564;DHT22;4820;50.870;4.702;2022-10-31T07:16:07;13.40;99.90
9564;DHT22;4820;50.870;4.702;2022-10-31T07:18:33;13.30;99.90
9564;DHT22;4820;50.870;4.702;2022-10-31T07:21:00;13.40;99.90
9564;DHT22;4820;50.870;4.702;2022-10-31T07:23:26;13.30;99.90
9564;DHT22;4820;50.870;4.702;2022-10-31T07:25:55;13.30;99.90
9564;DHT22;4820;50.870;4.702;2022-10-31T07:28:22;13.30;99.90
9564;DHT22;4820;50.870;4.702;2022-10-31T07:30:53;13.30;99.90
9564;DHT22;4820;50.870;4.702;2022-10-31T07:33:19;13.30;99.90
9564;DHT22;4820;50.870;4.702;2022-10-31T07:35:45;13.20;99.90
9564;DHT22;4820;50.870;4.702;2022-10-31T07:38:12;13.30;99.90
9564;DHT22;4820;50.870;4.702;2022-10-31T07:40:38;13.30;99.90
9564;DHT22;4820;50.870;4.702;2022-10-31T07:43:04;13.30;99.90
9564;DHT22;4820;50.870;4.702;2022-10-31T07:45:30;13.40;99.90
9564;DHT22;4820;50.870;4.702;2022-10-31T07:47:56;13.50;99.90
9564;DHT22;4820;50.870;4.702;2022-10-31T07:50:27;13.60;99.90
9564;DHT22;4820;50.870;4.702;2022-10-31T07:55:28;13.60;99.90
9564;DHT22;4820;50.870;4.702;2022-10-31T07:58:03;13.60;99.90
9564;DHT22;4820;50.870;4.702;2022-10-31T08:00:29;13.60;99.90
9564;DHT22;4820;50.870;4.702;2022-10-31T08:05:23;13.70;99.90
9564;DHT22;4820;50.870;4.702;2022-10-31T08:07:49;13.90;99.90
9564;DHT22;4820;50.870;4.702;2022-10-31T08:10:15;13.80;99.90
9564;DHT22;4820;50.870;4.702;2022-10-31T08:12:40;13.90;99.90
9564;DHT22;4820;50.870;4.702;2022-10-31T08:15:06;14.00;99.90
9564;DHT22;4820;50.870;4.702;2022-10-31T08:17:35;14.00;99.90
9564;DHT22;4820;50.870;4.702;2022-10-31T08:20:02;14.10;99.90
9564;DHT22;4820;50.870;4.702;2022-10-31T08:22:27;14.10;99.90
9564;DHT22;4820;50.870;4.702;2022-10-31T08:24:53;14.10;99.90
9564;DHT22;4820;50.870;4.702;2022-10-31T08:27:19;14.00;99.90
9564;DHT22;4820;50.870;4.702;2022-10-31T08:29:45;14.00;99.90
9564;DHT22;4820;50.870;4.702;2022-10-31T08:32:11;13.90;99.90
9564;DHT22;4820;50.870;4.702;2022-10-31T08:34:36;14.00;99.90
9564;DHT22;4820;50.870;4.702;2022-10-31T08:37:02;14.10;99.90
9564;DHT22;4820;50.870;4.702;2022-10-31T08:39:27;14.10;99.90
9564;DHT22;4820;50.870;4.702;2022-10-31T08:41:53;14.10;99.90
9564;DHT22;4820;50.870;4.702;2022-10-31T08:44:19;14.20;99.90
9564;DHT22;4820;50.870;4.702;2022-10-31T08:46:44;14.30;99.90
9564;DHT22;4820;50.870;4.702;2022-10-31T08:49:10;14.30;99.90
9564;DHT22;4820;50.870;4.702;2022-10-31T08:51:35;14.30;99.90
9564;DHT22;4820;50.870;4.702;2022-10-31T08:54:01;14.30;99.90
9564;DHT22;4820;50.870;4.702;2022-10-31T08:56:27;14.30;99.90
9564;DHT22;4820;50.870;4.702;2022-10-31T08:58:53;14.30;99.90
9564;DHT22;4820;50.870;4.702;2022-10-31T09:01:19;14.30;99.90
9564;DHT22;4820;50.870;4.702;2022-10-31T09:03:44;14.40;99.90
9564;DHT22;4820;50.870;4.702;2022-10-31T09:06:10;14.40;99.90
9564;DHT22;4820;50.870;4.702;2022-10-31T09:08:36;14.40;99.90
9564;DHT22;4820;50.870;4.702;2022-10-31T09:11:02;14.30;99.90
9564;DHT22;4820;50.870;4.702;2022-10-31T09:13:28;14.30;99.90
9564;DHT22;4820;50.870;4.702;2022-10-31T09:15:56;14.30;99.90
9564;DHT22;4820;50.870;4.702;2022-10-31T09:18:23;14.30;99.90
9564;DHT22;4820;50.870;4.702;2022-10-31T09:20:49;14.40;99.90
9564;DHT22;4820;50.870;4.702;2022-10-31T09:23:18;14.40;99.90
9564;DHT22;4820;50.870;4.702;2022-10-31T09:25:44;14.60;99.90
9564;DHT22;4820;50.870;4.702;2022-10-31T09:28:12;14.70;99.90
9564;DHT22;4820;50.870;4.702;2022-10-31T09:30:38;14.80;99.90
9564;DHT22;4820;50.870;4.702;2022-10-31T09:33:14;14.90;99.90
9564;DHT22;4820;50.870;4.702;2022-10-31T09:35:41;15.10;99.90
9564;DHT22;4820;50.870;4.702;2022-10-31T09:38:10;15.20;99.90
9564;DHT22;4820;50.870;4.702;2022-10-31T09:43:54;15.30;99.90
9564;DHT22;4820;50.870;4.702;2022-10-31T09:55:18;15.30;99.90
9564;DHT22;4820;50.870;4.702;2022-10-31T09:57:44;15.30;99.90
9564;DHT22;4820;50.870;4.702;2022-10-31T10:00:17;15.40;99.90
9564;DHT22;4820;50.870;4.702;2022-10-31T10:02:48;15.50;99.90
9564;DHT22;4820;50.870;4.702;2022-10-31T10:05:24;15.70;99.90
9564;DHT22;4820;50.870;4.702;2022-10-31T10:08:21;15.70;99.90
9564;DHT22;4820;50.870;4.702;2022-10-31T10:11:12;15.80;99.90
9564;DHT22;4820;50.870;4.702;2022-10-31T10:16:47;15.90;99.90
9564;DHT22;4820;50.870;4.702;2022-10-31T10:19:22;16.00;99.90
9564;DHT22;4820;50.870;4.702;2022-10-31T10:30:19;16.20;99.90
9564;DHT22;4820;50.870;4.702;2022-10-31T10:33:22;16.20;99.90
9564;DHT22;4820;50.870;4.702;2022-10-31T10:35:55;16.30;99.90
9564;DHT22;4820;50.870;4.702;2022-10-31T10:38:34;16.40;99.90
9564;DHT22;4820;50.870;4.702;2022-10-31T10:41:07;16.30;99.90
9564;DHT22;4820;50.870;4.702;2022-10-31T10:43:36;16.40;99.90
9564;DHT22;4820;50.870;4.702;2022-10-31T10:59:59;16.80;99.90
9564;DHT22;4820;50.870;4.702;2022-10-31T11:02:27;16.90;99.90
9564;DHT22;4820;50.870;4.702;2022-10-31T11:04:58;17.00;99.90
9564;DHT22;4820;50.870;4.702;2022-10-31T11:07:25;17.30;99.90
9564;DHT22;4820;50.870;4.702;2022-10-31T11:09:50;17.40;99.90
9564;DHT22;4820;50.870;4.702;2022-10-31T11:12:20;17.50;99.90
9564;DHT22;4820;50.870;4.702;2022-10-31T11:14:59;17.70;99.90
9564;DHT22;4820;50.870;4.702;2022-10-31T11:17:38;18.10;99.90
9564;DHT22;4820;50.870;4.702;2022-10-31T11:20:29;18.40;99.90
9564;DHT22;4820;50.870;4.702;2022-10-31T11:23:22;18.50;99.90
9564;DHT22;4820;50.870;4.702;2022-10-31T11:26:16;18.50;99.90
9564;DHT22;4820;50.870;4.702;2022-10-31T11:28:43;18.40;99.90
9564;DHT22;4820;50.870;4.702;2022-10-31T11:31:12;18.20;99.90
9564;DHT22;4820;50.870;4.702;2022-10-31T11:33:49;18.20;99.90
9564;DHT22;4820;50.870;4.702;2022-10-31T11:36:32;18.20;99.90
9564;DHT22;4820;50.870;4.702;2022-10-31T11:38:59;18.20;99.90
9564;DHT22;4820;50.870;4.702;2022-10-31T11:41:34;18.10;99.90
9564;DHT22;4820;50.870;4.702;2022-10-31T11:44:14;18.10;99.90
9564;DHT22;4820;50.870;4.702;2022-10-31T11:46:47;18.10;99.90
9564;DHT22;4820;50.870;4.702;2022-10-31T11:49:18;18.10;99.90
9564;DHT22;4820;50.870;4.702;2022-10-31T11:51:49;18.20;99.90
9564;DHT22;4820;50.870;4.702;2022-10-31T11:54:25;18.20;99.90
9564;DHT22;4820;50.870;4.702;2022-10-31T11:56:53;18.20;99.90
9564;DHT22;4820;50.870;4.702;2022-10-31T11:59:27;18.20;99.90
9564;DHT22;4820;50.870;4.702;2022-10-31T12:01:55;18.30;99.90
9564;DHT22;4820;50.870;4.702;2022-10-31T12:04:42;18.20;99.90
9564;DHT22;4820;50.870;4.702;2022-10-31T12:07:08;18.10;99.90
9564;DHT22;4820;50.870;4.702;2022-10-31T12:09:35;18.00;99.90
9564;DHT22;4820;50.870;4.702;2022-10-31T12:17:28;17.90;99.90
9564;DHT22;4820;50.870;4.702;2022-10-31T12:25:33;17.90;99.90
9564;DHT22;4820;50.870;4.702;2022-10-31T12:36:36;17.90;99.90
9564;DHT22;4820;50.870;4.702;2022-10-31T12:52:57;18.30;99.90
9564;DHT22;4820;50.870;4.702;2022-10-31T12:58:02;18.40;99.90
9564;DHT22;4820;50.870;4.702;2022-10-31T13:00:31;18.50;99.90
9564;DHT22;4820;50.870;4.702;2022-10-31T13:03:21;18.50;99.90
9564;DHT22;4820;50.870;4.702;2022-10-31T13:05:53;18.50;99.90
9564;DHT22;4820;50.870;4.702;2022-10-31T13:08:34;18.50;99.90
9564;DHT22;4820;50.870;4.702;2022-10-31T13:11:16;18.50;99.90
9564;DHT22;4820;50.870;4.702;2022-10-31T13:16:41;18.50;99.90
9564;DHT22;4820;50.870;4.702;2022-10-31T13:19:18;18.60;99.90
9564;DHT22;4820;50.870;4.702;2022-10-31T13:24:20;18.70;99.90
9564;DHT22;4820;50.870;4.702;2022-10-31T13:26:54;18.70;99.90
9564;DHT22;4820;50.870;4.702;2022-10-31T13:29:30;18.80;99.90
9564;DHT22;4820;50.870;4.702;2022-10-31T13:32:09;18.90;99.90
9564;DHT22;4820;50.870;4.702;2022-10-31T13:34:46;18.80;99.90
9564;DHT22;4820;50.870;4.702;2022-10-31T13:37:29;18.70;99.90
9564;DHT22;4820;50.870;4.702;2022-10-31T13:42:57;18.70;99.90
9564;DHT22;4820;50.870;4.702;2022-10-31T13:45:25;18.70;99.90
9564;DHT22;4820;50.870;4.702;2022-10-31T13:50:39;18.60;99.90
9564;DHT22;4820;50.870;4.702;2022-10-31T13:53:19;18.50;99.90
9564;DHT22;4820;50.870;4.702;2022-10-31T13:56:01;18.40;99.90
9564;DHT22;4820;50.870;4.702;2022-10-31T13:58:29;18.30;99.90
9564;DHT22;4820;50.870;4.702;2022-10-31T14:01:06;18.20;99.90
9564;DHT22;4820;50.870;4.702;2022-10-31T14:03:38;18.20;99.90
9564;DHT22;4820;50.870;4.702;2022-10-31T14:06:05;18.20;99.90
9564;DHT22;4820;50.870;4.702;2022-10-31T14:08:34;18.10;99.90
9564;DHT22;4820;50.870;4.702;2022-10-31T14:11:02;18.10;99.90
9564;DHT22;4820;50.870;4.702;2022-10-31T14:16:23;18.10;99.90
9564;DHT22;4820;50.870;4.702;2022-10-31T14:18:50;18.00;99.90
9564;DHT22;4820;50.870;4.702;2022-10-31T14:23:49;18.00;99.90
9564;DHT22;4820;50.870;4.702;2022-10-31T14:29:20;18.20;99.90
9564;DHT22;4820;50.870;4.702;2022-10-31T14:31:42;18.20;99.90
9564;DHT22;4820;50.870;4.702;2022-10-31T14:37:01;18.40;99.90
9564;DHT22;4820;50.870;4.702;2022-10-31T14:42:35;19.00;99.90
9564;DHT22;4820;50.870;4.702;2022-10-31T14:45:25;19.20;99.90
9564;DHT22;4820;50.870;4.702;2022-10-31T14:50:58;19.20;99.90
9564;DHT22;4820;50.870;4.702;2022-10-31T14:53:38;19.00;99.90
9564;DHT22;4820;50.870;4.702;2022-10-31T14:56:10;18.80;99.90
9564;DHT22;4820;50.870;4.702;2022-10-31T14:58:42;18.70;99.90
9564;DHT22;4820;50.870;4.702;2022-10-31T15:01:28;18.60;99.90
9564;DHT22;4820;50.870;4.702;2022-10-31T15:04:13;18.50;99.90
9564;DHT22;4820;50.870;4.702;2022-10-31T15:07:09;18.50;99.90
9564;DHT22;4820;50.870;4.702;2022-10-31T15:09:34;18.50;99.90
9564;DHT22;4820;50.870;4.702;2022-10-31T15:12:00;18.40;99.90
9564;DHT22;4820;50.870;4.702;2022-10-31T15:14:30;18.40;99.90
9564;DHT22;4820;50.870;4.702;2022-10-31T15:17:03;18.40;99.90
9564;DHT22;4820;50.870;4.702;2022-10-31T15:19:30;18.50;99.90
9564;DHT22;4820;50.870;4.702;2022-10-31T15:21:57;18.50;99.90
9564;DHT22;4820;50.870;4.702;2022-10-31T15:24:30;18.40;99.90
9564;DHT22;4820;50.870;4.702;2022-10-31T15:26:58;18.30;99.90
9564;DHT22;4820;50.870;4.702;2022-10-31T15:29:26;18.20;99.90
9564;DHT22;4820;50.870;4.702;2022-10-31T15:32:01;18.00;99.90
9564;DHT22;4820;50.870;4.702;2022-10-31T15:34:39;17.90;99.90
9564;DHT22;4820;50.870;4.702;2022-10-31T15:37:16;17.80;99.90
9564;DHT22;4820;50.870;4.702;2022-10-31T15:39:43;17.70;99.90
9564;DHT22;4820;50.870;4.702;2022-10-31T15:45:04;17.50;99.90
9564;DHT22;4820;50.870;4.702;2022-10-31T15:47:32;17.50;99.90
9564;DHT22;4820;50.870;4.702;2022-10-31T15:49:59;17.50;99.90
9564;DHT22;4820;50.870;4.702;2022-10-31T15:52:43;17.40;99.90
9564;DHT22;4820;50.870;4.702;2022-10-31T15:55:18;17.40;99.90
9564;DHT22;4820;50.870;4.702;2022-10-31T15:57:51;17.30;99.90
9564;DHT22;4820;50.870;4.702;2022-10-31T16:00:26;17.20;99.90
9564;DHT22;4820;50.870;4.702;2022-10-31T16:05:49;17.10;99.90
9564;DHT22;4820;50.870;4.702;2022-10-31T16:10:46;17.10;99.90
9564;DHT22;4820;50.870;4.702;2022-10-31T16:13:15;17.00;99.90
9564;DHT22;4820;50.870;4.702;2022-10-31T16:15:54;17.00;99.90
9564;DHT22;4820;50.870;4.702;2022-10-31T16:18:21;17.00;99.90
9564;DHT22;4820;50.870;4.702;2022-10-31T16:20:52;16.90;99.90
9564;DHT22;4820;50.870;4.702;2022-10-31T16:23:20;16.90;99.90
9564;DHT22;4820;50.870;4.702;2022-10-31T16:25:47;16.80;99.90
9564;DHT22;4820;50.870;4.702;2022-10-31T16:28:22;16.70;99.90
9564;DHT22;4820;50.870;4.702;2022-10-31T16:30:59;16.70;99.90
9564;DHT22;4820;50.870;4.702;2022-10-31T16:33:33;16.60;99.90
9564;DHT22;4820;50.870;4.702;2022-10-31T16:38:53;16.50;99.90
9564;DHT22;4820;50.870;4.702;2022-10-31T16:41:19;16.50;99.90
9564;DHT22;4820;50.870;4.702;2022-10-31T16:43:46;16.50;99.90
9564;DHT22;4820;50.870;4.702;2022-10-31T16:46:22;16.50;99.90
9564;DHT22;4820;50.870;4.702;2022-10-31T16:48:48;16.50;99.90
9564;DHT22;4820;50.870;4.702;2022-10-31T16:51:15;16.50;99.90
9564;DHT22;4820;50.870;4.702;2022-10-31T16:53:41;16.50;99.90
9564;DHT22;4820;50.870;4.702;2022-10-31T16:56:18;16.40;99.90
9564;DHT22;4820;50.870;4.702;2022-10-31T16:58:49;16.40;99.90
9564;DHT22;4820;50.870;4.702;2022-10-31T17:01:15;16.30;99.90
9564;DHT22;4820;50.870;4.702;2022-10-31T17:03:42;16.30;99.90
9564;DHT22;4820;50.870;4.702;2022-10-31T17:06:11;16.20;99.90
9564;DHT22;4820;50.870;4.702;2022-10-31T17:08:37;16.20;99.90
9564;DHT22;4820;50.870;4.702;2022-10-31T17:11:03;16.20;99.90
9564;DHT22;4820;50.870;4.702;2022-10-31T17:13:30;16.20;99.90
9564;DHT22;4820;50.870;4.702;2022-10-31T17:15:59;16.10;99.90
9564;DHT22;4820;50.870;4.702;2022-10-31T17:18:25;16.10;99.90
9564;DHT22;4820;50.870;4.702;2022-10-31T17:20:56;16.10;99.90
9564;DHT22;4820;50.870;4.702;2022-10-31T17:23:23;16.00;99.90
9564;DHT22;4820;50.870;4.702;2022-10-31T17:25:49;16.10;99.90
9564;DHT22;4820;50.870;4.702;2022-10-31T17:28:15;16.00;99.90
9564;DHT22;4820;50.870;4.702;2022-10-31T17:30:41;16.10;99.90
9564;DHT22;4820;50.870;4.702;2022-10-31T17:33:15;16.00;99.90
9564;DHT22;4820;50.870;4.702;2022-10-31T17:35:42;16.00;99.90
9564;DHT22;4820;50.870;4.702;2022-10-31T17:38:08;16.00;99.90
9564;DHT22;4820;50.870;4.702;2022-10-31T17:40:36;16.00;99.90
9564;DHT22;4820;50.870;4.702;2022-10-31T17:43:02;16.00;99.90
9564;DHT22;4820;50.870;4.702;2022-10-31T17:45:27;16.00;99.90
9564;DHT22;4820;50.870;4.702;2022-10-31T17:47:53;16.00;99.90
9564;DHT22;4820;50.870;4.702;2022-10-31T17:50:24;16.00;99.90
9564;DHT22;4820;50.870;4.702;2022-10-31T17:52:50;15.90;99.90
9564;DHT22;4820;50.870;4.702;2022-10-31T17:55:16;15.90;99.90
9564;DHT22;4820;50.870;4.702;2022-10-31T17:57:43;15.90;99.90
9564;DHT22;4820;50.870;4.702;2022-10-31T18:00:12;15.90;99.90
9564;DHT22;4820;50.870;4.702;2022-10-31T18:02:39;15.80;99.90
9564;DHT22;4820;50.870;4.702;2022-10-31T18:05:06;15.80;99.90
9564;DHT22;4820;50.870;4.702;2022-10-31T18:07:32;15.80;99.90
9564;DHT22;4820;50.870;4.702;2022-10-31T18:09:59;15.80;99.90
9564;DHT22;4820;50.870;4.702;2022-10-31T18:12:26;15.80;99.90
9564;DHT22;4820;50.870;4.702;2022-10-31T18:14:52;15.80;99.90
9564;DHT22;4820;50.870;4.702;2022-10-31T18:17:20;15.90;99.90
9564;DHT22;4820;50.870;4.702;2022-10-31T18:19:45;15.80;99.90
9564;DHT22;4820;50.870;4.702;2022-10-31T18:22:12;15.80;99.90
9564;DHT22;4820;50.870;4.702;2022-10-31T18:24:38;15.80;99.90
9564;DHT22;4820;50.870;4.702;2022-10-31T18:27:04;15.70;99.90
9564;DHT22;4820;50.870;4.702;2022-10-31T18:29:30;15.70;99.90
9564;DHT22;4820;50.870;4.702;2022-10-31T18:31:56;15.70;99.90
9564;DHT22;4820;50.870;4.702;2022-10-31T18:34:22;15.70;99.90
9564;DHT22;4820;50.870;4.702;2022-10-31T18:36:47;15.60;99.90
9564;DHT22;4820;50.870;4.702;2022-10-31T18:39:13;15.70;99.90
9564;DHT22;4820;50.870;4.702;2022-10-31T18:41:39;15.70;99.90
9564;DHT22;4820;50.870;4.702;2022-10-31T18:44:07;15.70;99.90
9564;DHT22;4820;50.870;4.702;2022-10-31T18:46:34;15.70;99.90
9564;DHT22;4820;50.870;4.702;2022-10-31T18:49:00;15.70;99.90
9564;DHT22;4820;50.870;4.702;2022-10-31T18:51:26;15.70;99.90
9564;DHT22;4820;50.870;4.702;2022-10-31T18:53:53;15.70;99.90